sensor_id;sensor_type;location;lat;lon;timestamp;P1;durP1;ratioP1;P2;durP2;ratioP2
52354;SDS011;38286;51.156;17.038;2023-03-01T00:00:15;180.98;;;56.22;;
52354;SDS011;38286;51.156;17.038;2023-03-01T00:03:01;186.05;;;58.22;;
52354;SDS011;38286;51.156;17.038;2023-03-01T00:05:27;184.32;;;56.90;;
52354;SDS011;38286;51.156;17.038;2023-03-01T00:07:53;168.00;;;54.55;;
52354;SDS011;38286;51.156;17.038;2023-03-01T00:10:18;165.63;;;56.45;;
52354;SDS011;38286;51.156;17.038;2023-03-01T00:12:44;175.98;;;60.22;;
52354;SDS011;38286;51.156;17.038;2023-03-01T00:15:10;224.38;;;68.30;;
52354;SDS011;38286;51.156;17.038;2023-03-01T00:17:37;198.20;;;62.78;;
52354;SDS011;38286;51.156;17.038;2023-03-01T00:20:02;195.77;;;59.33;;
52354;SDS011;38286;51.156;17.038;2023-03-01T00:22:29;188.40;;;60.28;;
52354;SDS011;38286;51.156;17.038;2023-03-01T00:24:54;200.52;;;63.70;;
52354;SDS011;38286;51.156;17.038;2023-03-01T00:27:20;186.63;;;62.38;;
52354;SDS011;38286;51.156;17.038;2023-03-01T00:29:46;182.60;;;57.45;;
52354;SDS011;38286;51.156;17.038;2023-03-01T00:32:12;195.95;;;60.15;;
52354;SDS011;38286;51.156;17.038;2023-03-01T00:34:37;203.55;;;63.88;;
52354;SDS011;38286;51.156;17.038;2023-03-01T00:37:03;202.02;;;64.75;;
52354;SDS011;38286;51.156;17.038;2023-03-01T00:39:30;200.98;;;62.65;;
52354;SDS011;38286;51.156;17.038;2023-03-01T00:41:56;182.35;;;58.88;;
52354;SDS011;38286;51.156;17.038;2023-03-01T00:44:22;167.50;;;53.20;;
52354;SDS011;38286;51.156;17.038;2023-03-01T00:46:47;166.07;;;55.47;;
52354;SDS011;38286;51.156;17.038;2023-03-01T00:49:13;184.48;;;61.70;;
52354;SDS011;38286;51.156;17.038;2023-03-01T00:51:39;189.43;;;68.32;;
52354;SDS011;38286;51.156;17.038;2023-03-01T00:54:09;173.52;;;61.55;;
52354;SDS011;38286;51.156;17.038;2023-03-01T00:56:35;179.13;;;63.58;;
52354;SDS011;38286;51.156;17.038;2023-03-01T00:59:01;172.70;;;61.47;;
52354;SDS011;38286;51.156;17.038;2023-03-01T01:01:28;164.32;;;59.40;;
52354;SDS011;38286;51.156;17.038;2023-03-01T01:03:56;155.40;;;53.58;;
52354;SDS011;38286;51.156;17.038;2023-03-01T01:06:25;166.77;;;57.40;;
52354;SDS011;38286;51.156;17.038;2023-03-01T01:08:55;174.68;;;60.67;;
52354;SDS011;38286;51.156;17.038;2023-03-01T01:11:23;171.40;;;60.72;;
52354;SDS011;38286;51.156;17.038;2023-03-01T01:13:49;173.45;;;59.15;;
52354;SDS011;38286;51.156;17.038;2023-03-01T01:16:17;183.63;;;66.97;;
52354;SDS011;38286;51.156;17.038;2023-03-01T01:18:44;181.75;;;61.97;;
52354;SDS011;38286;51.156;17.038;2023-03-01T01:21:11;166.52;;;58.50;;
52354;SDS011;38286;51.156;17.038;2023-03-01T01:23:39;176.55;;;61.47;;
52354;SDS011;38286;51.156;17.038;2023-03-01T01:26:06;166.10;;;55.80;;
52354;SDS011;38286;51.156;17.038;2023-03-01T01:28:33;166.48;;;58.33;;
52354;SDS011;38286;51.156;17.038;2023-03-01T01:31:00;177.85;;;59.33;;
52354;SDS011;38286;51.156;17.038;2023-03-01T01:33:26;172.00;;;61.85;;
52354;SDS011;38286;51.156;17.038;2023-03-01T01:35:52;179.07;;;59.78;;
52354;SDS011;38286;51.156;17.038;2023-03-01T01:38:21;167.70;;;59.15;;
52354;SDS011;38286;51.156;17.038;2023-03-01T01:40:47;167.45;;;58.85;;
52354;SDS011;38286;51.156;17.038;2023-03-01T01:43:24;168.65;;;59.88;;
52354;SDS011;38286;51.156;17.038;2023-03-01T01:45:55;175.40;;;59.53;;
52354;SDS011;38286;51.156;17.038;2023-03-01T01:48:23;156.07;;;56.25;;
52354;SDS011;38286;51.156;17.038;2023-03-01T01:50:52;166.90;;;58.10;;
52354;SDS011;38286;51.156;17.038;2023-03-01T01:53:20;166.25;;;58.65;;
52354;SDS011;38286;51.156;17.038;2023-03-01T01:55:54;163.38;;;57.50;;
52354;SDS011;38286;51.156;17.038;2023-03-01T01:58:23;175.27;;;63.58;;
52354;SDS011;38286;51.156;17.038;2023-03-01T02:00:49;164.13;;;60.28;;
52354;SDS011;38286;51.156;17.038;2023-03-01T02:03:17;170.85;;;57.58;;
52354;SDS011;38286;51.156;17.038;2023-03-01T02:05:56;176.18;;;61.42;;
52354;SDS011;38286;51.156;17.038;2023-03-01T02:08:26;174.95;;;62.00;;
52354;SDS011;38286;51.156;17.038;2023-03-01T02:10:54;175.88;;;63.97;;
52354;SDS011;38286;51.156;17.038;2023-03-01T02:13:21;164.35;;;61.67;;
52354;SDS011;38286;51.156;17.038;2023-03-01T02:15:46;168.82;;;62.10;;
52354;SDS011;38286;51.156;17.038;2023-03-01T02:18:13;167.27;;;58.13;;
52354;SDS011;38286;51.156;17.038;2023-03-01T02:23:39;167.52;;;63.00;;
52354;SDS011;38286;51.156;17.038;2023-03-01T02:28:35;164.85;;;60.40;;
52354;SDS011;38286;51.156;17.038;2023-03-01T02:31:03;161.48;;;57.58;;
52354;SDS011;38286;51.156;17.038;2023-03-01T02:33:49;159.10;;;57.97;;
52354;SDS011;38286;51.156;17.038;2023-03-01T02:36:16;159.05;;;56.95;;
52354;SDS011;38286;51.156;17.038;2023-03-01T02:38:43;174.07;;;60.20;;
52354;SDS011;38286;51.156;17.038;2023-03-01T02:41:10;168.90;;;57.70;;
52354;SDS011;38286;51.156;17.038;2023-03-01T02:43:37;163.70;;;58.30;;
52354;SDS011;38286;51.156;17.038;2023-03-01T02:46:05;165.65;;;57.78;;
52354;SDS011;38286;51.156;17.038;2023-03-01T02:48:42;172.30;;;61.83;;
52354;SDS011;38286;51.156;17.038;2023-03-01T02:53:56;174.80;;;62.85;;
52354;SDS011;38286;51.156;17.038;2023-03-01T02:56:30;182.93;;;70.55;;
52354;SDS011;38286;51.156;17.038;2023-03-01T02:58:55;197.10;;;72.80;;
52354;SDS011;38286;51.156;17.038;2023-03-01T03:01:26;175.00;;;66.97;;
52354;SDS011;38286;51.156;17.038;2023-03-01T03:04:09;192.88;;;67.97;;
52354;SDS011;38286;51.156;17.038;2023-03-01T03:06:36;194.68;;;75.90;;
52354;SDS011;38286;51.156;17.038;2023-03-01T03:09:02;200.25;;;73.07;;
52354;SDS011;38286;51.156;17.038;2023-03-01T03:11:29;181.48;;;66.28;;
52354;SDS011;38286;51.156;17.038;2023-03-01T03:13:55;174.50;;;64.13;;
52354;SDS011;38286;51.156;17.038;2023-03-01T03:16:21;188.70;;;65.75;;
52354;SDS011;38286;51.156;17.038;2023-03-01T03:18:47;196.43;;;71.18;;
52354;SDS011;38286;51.156;17.038;2023-03-01T03:21:13;206.30;;;69.32;;
52354;SDS011;38286;51.156;17.038;2023-03-01T03:23:39;198.60;;;69.55;;
52354;SDS011;38286;51.156;17.038;2023-03-01T03:26:05;194.93;;;69.55;;
52354;SDS011;38286;51.156;17.038;2023-03-01T03:28:31;205.57;;;69.97;;
52354;SDS011;38286;51.156;17.038;2023-03-01T03:30:59;189.38;;;67.20;;
52354;SDS011;38286;51.156;17.038;2023-03-01T03:33:31;194.00;;;69.80;;
52354;SDS011;38286;51.156;17.038;2023-03-01T03:35:57;192.93;;;66.85;;
52354;SDS011;38286;51.156;17.038;2023-03-01T03:38:23;187.40;;;69.40;;
52354;SDS011;38286;51.156;17.038;2023-03-01T03:40:50;187.82;;;69.68;;
52354;SDS011;38286;51.156;17.038;2023-03-01T03:43:20;178.35;;;64.60;;
52354;SDS011;38286;51.156;17.038;2023-03-01T03:45:49;188.02;;;70.30;;
52354;SDS011;38286;51.156;17.038;2023-03-01T03:48:15;182.15;;;66.15;;
52354;SDS011;38286;51.156;17.038;2023-03-01T03:50:46;190.40;;;69.82;;
52354;SDS011;38286;51.156;17.038;2023-03-01T03:53:13;193.10;;;63.83;;
52354;SDS011;38286;51.156;17.038;2023-03-01T03:55:39;202.13;;;70.65;;
52354;SDS011;38286;51.156;17.038;2023-03-01T03:58:05;192.63;;;71.45;;
52354;SDS011;38286;51.156;17.038;2023-03-01T04:00:42;200.63;;;72.38;;
52354;SDS011;38286;51.156;17.038;2023-03-01T04:03:09;195.57;;;70.82;;
52354;SDS011;38286;51.156;17.038;2023-03-01T04:05:36;188.15;;;67.10;;
52354;SDS011;38286;51.156;17.038;2023-03-01T04:08:03;199.15;;;70.25;;
52354;SDS011;38286;51.156;17.038;2023-03-01T04:10:34;189.85;;;72.43;;
52354;SDS011;38286;51.156;17.038;2023-03-01T04:13:02;199.15;;;71.78;;
52354;SDS011;38286;51.156;17.038;2023-03-01T04:15:28;196.38;;;72.88;;
52354;SDS011;38286;51.156;17.038;2023-03-01T04:17:54;202.00;;;72.15;;
52354;SDS011;38286;51.156;17.038;2023-03-01T04:20:21;202.13;;;71.40;;
52354;SDS011;38286;51.156;17.038;2023-03-01T04:22:52;197.13;;;73.53;;
52354;SDS011;38286;51.156;17.038;2023-03-01T04:25:22;191.23;;;72.57;;
52354;SDS011;38286;51.156;17.038;2023-03-01T04:27:48;200.77;;;72.78;;
52354;SDS011;38286;51.156;17.038;2023-03-01T04:30:14;192.73;;;71.55;;
52354;SDS011;38286;51.156;17.038;2023-03-01T04:32:39;187.82;;;69.10;;
52354;SDS011;38286;51.156;17.038;2023-03-01T04:35:06;189.63;;;67.95;;
52354;SDS011;38286;51.156;17.038;2023-03-01T04:37:31;174.85;;;64.60;;
52354;SDS011;38286;51.156;17.038;2023-03-01T04:39:57;175.82;;;63.47;;
52354;SDS011;38286;51.156;17.038;2023-03-01T04:42:23;184.13;;;69.07;;
52354;SDS011;38286;51.156;17.038;2023-03-01T04:44:49;182.88;;;65.53;;
52354;SDS011;38286;51.156;17.038;2023-03-01T04:47:16;187.63;;;68.00;;
52354;SDS011;38286;51.156;17.038;2023-03-01T04:49:42;191.93;;;70.53;;
52354;SDS011;38286;51.156;17.038;2023-03-01T04:52:07;192.75;;;66.70;;
52354;SDS011;38286;51.156;17.038;2023-03-01T04:54:34;178.20;;;66.30;;
52354;SDS011;38286;51.156;17.038;2023-03-01T04:57:00;185.13;;;68.50;;
52354;SDS011;38286;51.156;17.038;2023-03-01T04:59:27;182.43;;;64.20;;
52354;SDS011;38286;51.156;17.038;2023-03-01T05:01:54;167.75;;;59.15;;
52354;SDS011;38286;51.156;17.038;2023-03-01T05:04:23;167.13;;;62.47;;
52354;SDS011;38286;51.156;17.038;2023-03-01T05:06:49;165.73;;;61.20;;
52354;SDS011;38286;51.156;17.038;2023-03-01T05:09:15;163.30;;;61.22;;
52354;SDS011;38286;51.156;17.038;2023-03-01T05:11:41;165.23;;;61.70;;
52354;SDS011;38286;51.156;17.038;2023-03-01T05:14:07;182.75;;;66.50;;
52354;SDS011;38286;51.156;17.038;2023-03-01T05:16:33;187.63;;;66.50;;
52354;SDS011;38286;51.156;17.038;2023-03-01T05:19:01;177.88;;;66.85;;
52354;SDS011;38286;51.156;17.038;2023-03-01T05:24:23;174.18;;;63.05;;
52354;SDS011;38286;51.156;17.038;2023-03-01T05:26:49;187.80;;;67.57;;
52354;SDS011;38286;51.156;17.038;2023-03-01T05:29:18;173.50;;;62.95;;
52354;SDS011;38286;51.156;17.038;2023-03-01T05:31:53;179.70;;;64.03;;
52354;SDS011;38286;51.156;17.038;2023-03-01T05:34:24;176.20;;;63.08;;
52354;SDS011;38286;51.156;17.038;2023-03-01T05:36:50;184.30;;;64.10;;
52354;SDS011;38286;51.156;17.038;2023-03-01T05:39:22;179.48;;;63.90;;
52354;SDS011;38286;51.156;17.038;2023-03-01T05:41:52;182.32;;;65.60;;
52354;SDS011;38286;51.156;17.038;2023-03-01T05:44:22;185.13;;;67.32;;
52354;SDS011;38286;51.156;17.038;2023-03-01T05:46:47;173.52;;;60.65;;
52354;SDS011;38286;51.156;17.038;2023-03-01T05:49:13;176.00;;;64.72;;
52354;SDS011;38286;51.156;17.038;2023-03-01T05:51:42;178.95;;;63.33;;
52354;SDS011;38286;51.156;17.038;2023-03-01T05:54:09;182.07;;;62.83;;
52354;SDS011;38286;51.156;17.038;2023-03-01T05:56:35;171.98;;;60.22;;
52354;SDS011;38286;51.156;17.038;2023-03-01T05:59:03;169.00;;;63.72;;
52354;SDS011;38286;51.156;17.038;2023-03-01T06:01:30;200.65;;;68.55;;
52354;SDS011;38286;51.156;17.038;2023-03-01T06:03:56;179.63;;;61.08;;
52354;SDS011;38286;51.156;17.038;2023-03-01T06:06:22;184.50;;;63.58;;
52354;SDS011;38286;51.156;17.038;2023-03-01T06:08:50;215.75;;;74.80;;
52354;SDS011;38286;51.156;17.038;2023-03-01T06:11:15;225.75;;;75.40;;
52354;SDS011;38286;51.156;17.038;2023-03-01T06:13:42;228.02;;;76.38;;
52354;SDS011;38286;51.156;17.038;2023-03-01T06:16:08;276.35;;;83.95;;
52354;SDS011;38286;51.156;17.038;2023-03-01T06:18:34;236.38;;;74.97;;
52354;SDS011;38286;51.156;17.038;2023-03-01T06:21:00;225.65;;;76.03;;
52354;SDS011;38286;51.156;17.038;2023-03-01T06:23:26;225.68;;;76.88;;
52354;SDS011;38286;51.156;17.038;2023-03-01T06:25:51;250.38;;;78.85;;
52354;SDS011;38286;51.156;17.038;2023-03-01T06:28:17;220.75;;;70.78;;
52354;SDS011;38286;51.156;17.038;2023-03-01T06:30:43;190.85;;;64.80;;
52354;SDS011;38286;51.156;17.038;2023-03-01T06:33:08;180.57;;;61.75;;
52354;SDS011;38286;51.156;17.038;2023-03-01T06:35:34;165.05;;;57.10;;
52354;SDS011;38286;51.156;17.038;2023-03-01T06:38:01;152.30;;;53.10;;
52354;SDS011;38286;51.156;17.038;2023-03-01T06:40:28;177.38;;;61.97;;
52354;SDS011;38286;51.156;17.038;2023-03-01T06:42:54;167.90;;;58.63;;
52354;SDS011;38286;51.156;17.038;2023-03-01T06:45:20;169.75;;;62.75;;
52354;SDS011;38286;51.156;17.038;2023-03-01T06:47:46;172.10;;;59.47;;
52354;SDS011;38286;51.156;17.038;2023-03-01T06:50:12;156.60;;;55.80;;
52354;SDS011;38286;51.156;17.038;2023-03-01T06:52:39;149.65;;;54.70;;
52354;SDS011;38286;51.156;17.038;2023-03-01T06:55:05;141.93;;;52.17;;
52354;SDS011;38286;51.156;17.038;2023-03-01T06:57:31;142.82;;;48.80;;
52354;SDS011;38286;51.156;17.038;2023-03-01T06:59:57;152.07;;;52.00;;
52354;SDS011;38286;51.156;17.038;2023-03-01T07:02:23;156.38;;;51.92;;
52354;SDS011;38286;51.156;17.038;2023-03-01T07:04:49;139.80;;;48.13;;
52354;SDS011;38286;51.156;17.038;2023-03-01T07:07:16;120.10;;;44.95;;
52354;SDS011;38286;51.156;17.038;2023-03-01T07:09:43;133.43;;;47.63;;
52354;SDS011;38286;51.156;17.038;2023-03-01T07:12:12;116.93;;;43.55;;
52354;SDS011;38286;51.156;17.038;2023-03-01T07:14:37;112.45;;;41.72;;
52354;SDS011;38286;51.156;17.038;2023-03-01T07:17:03;123.30;;;43.10;;
52354;SDS011;38286;51.156;17.038;2023-03-01T07:19:29;115.25;;;42.97;;
52354;SDS011;38286;51.156;17.038;2023-03-01T07:21:54;107.55;;;42.42;;
52354;SDS011;38286;51.156;17.038;2023-03-01T07:24:21;104.38;;;39.60;;
52354;SDS011;38286;51.156;17.038;2023-03-01T07:26:50;103.03;;;40.20;;
52354;SDS011;38286;51.156;17.038;2023-03-01T07:29:16;92.85;;;36.40;;
52354;SDS011;38286;51.156;17.038;2023-03-01T07:31:43;89.78;;;36.70;;
52354;SDS011;38286;51.156;17.038;2023-03-01T07:34:09;84.38;;;32.25;;
52354;SDS011;38286;51.156;17.038;2023-03-01T07:36:36;84.35;;;31.85;;
52354;SDS011;38286;51.156;17.038;2023-03-01T07:39:02;87.57;;;35.10;;
52354;SDS011;38286;51.156;17.038;2023-03-01T07:41:28;86.50;;;35.53;;
52354;SDS011;38286;51.156;17.038;2023-03-01T07:43:54;87.93;;;37.67;;
52354;SDS011;38286;51.156;17.038;2023-03-01T07:46:20;85.07;;;37.83;;
52354;SDS011;38286;51.156;17.038;2023-03-01T07:48:46;89.95;;;39.03;;
52354;SDS011;38286;51.156;17.038;2023-03-01T07:51:12;85.47;;;40.03;;
52354;SDS011;38286;51.156;17.038;2023-03-01T07:53:38;74.80;;;36.53;;
52354;SDS011;38286;51.156;17.038;2023-03-01T07:56:04;77.45;;;37.35;;
52354;SDS011;38286;51.156;17.038;2023-03-01T07:58:30;75.80;;;37.72;;
52354;SDS011;38286;51.156;17.038;2023-03-01T08:00:57;72.35;;;37.25;;
52354;SDS011;38286;51.156;17.038;2023-03-01T08:03:26;73.57;;;37.72;;
52354;SDS011;38286;51.156;17.038;2023-03-01T08:05:52;73.47;;;37.33;;
52354;SDS011;38286;51.156;17.038;2023-03-01T08:08:17;65.53;;;35.83;;
52354;SDS011;38286;51.156;17.038;2023-03-01T08:10:43;65.20;;;36.90;;
52354;SDS011;38286;51.156;17.038;2023-03-01T08:13:09;70.38;;;37.35;;
52354;SDS011;38286;51.156;17.038;2023-03-01T08:15:35;63.70;;;37.00;;
52354;SDS011;38286;51.156;17.038;2023-03-01T08:18:00;63.03;;;37.53;;
52354;SDS011;38286;51.156;17.038;2023-03-01T08:20:26;71.35;;;38.15;;
52354;SDS011;38286;51.156;17.038;2023-03-01T08:22:52;72.30;;;38.60;;
52354;SDS011;38286;51.156;17.038;2023-03-01T08:25:17;67.88;;;34.78;;
52354;SDS011;38286;51.156;17.038;2023-03-01T08:27:43;61.92;;;35.13;;
52354;SDS011;38286;51.156;17.038;2023-03-01T08:30:09;58.45;;;34.55;;
52354;SDS011;38286;51.156;17.038;2023-03-01T08:32:35;59.15;;;35.00;;
52354;SDS011;38286;51.156;17.038;2023-03-01T08:35:02;60.85;;;34.40;;
52354;SDS011;38286;51.156;17.038;2023-03-01T08:37:28;55.75;;;32.63;;
52354;SDS011;38286;51.156;17.038;2023-03-01T08:39:56;57.38;;;33.05;;
52354;SDS011;38286;51.156;17.038;2023-03-01T08:42:21;57.20;;;33.13;;
52354;SDS011;38286;51.156;17.038;2023-03-01T08:44:47;59.28;;;32.85;;
52354;SDS011;38286;51.156;17.038;2023-03-01T08:47:13;52.35;;;31.30;;
52354;SDS011;38286;51.156;17.038;2023-03-01T08:49:39;52.70;;;31.25;;
52354;SDS011;38286;51.156;17.038;2023-03-01T08:52:05;49.65;;;29.85;;
52354;SDS011;38286;51.156;17.038;2023-03-01T08:54:30;50.35;;;30.48;;
52354;SDS011;38286;51.156;17.038;2023-03-01T08:56:56;51.03;;;30.27;;
52354;SDS011;38286;51.156;17.038;2023-03-01T08:59:24;44.70;;;26.95;;
52354;SDS011;38286;51.156;17.038;2023-03-01T09:01:50;43.25;;;26.52;;
52354;SDS011;38286;51.156;17.038;2023-03-01T09:04:16;40.83;;;26.13;;
52354;SDS011;38286;51.156;17.038;2023-03-01T09:06:42;34.25;;;21.20;;
52354;SDS011;38286;51.156;17.038;2023-03-01T09:09:12;34.75;;;20.73;;
52354;SDS011;38286;51.156;17.038;2023-03-01T09:11:40;31.45;;;20.42;;
52354;SDS011;38286;51.156;17.038;2023-03-01T09:14:06;36.97;;;21.38;;
52354;SDS011;38286;51.156;17.038;2023-03-01T09:16:32;29.83;;;19.55;;
52354;SDS011;38286;51.156;17.038;2023-03-01T09:19:01;27.98;;;17.75;;
52354;SDS011;38286;51.156;17.038;2023-03-01T09:21:27;22.73;;;16.25;;
52354;SDS011;38286;51.156;17.038;2023-03-01T09:23:53;24.67;;;15.38;;
52354;SDS011;38286;51.156;17.038;2023-03-01T09:26:21;24.75;;;17.08;;
52354;SDS011;38286;51.156;17.038;2023-03-01T09:28:48;28.42;;;18.50;;
52354;SDS011;38286;51.156;17.038;2023-03-01T09:31:16;26.27;;;17.20;;
52354;SDS011;38286;51.156;17.038;2023-03-01T09:33:44;27.58;;;17.45;;
52354;SDS011;38286;51.156;17.038;2023-03-01T09:36:12;26.40;;;18.77;;
52354;SDS011;38286;51.156;17.038;2023-03-01T09:38:39;25.13;;;17.50;;
52354;SDS011;38286;51.156;17.038;2023-03-01T09:41:42;28.00;;;17.98;;
52354;SDS011;38286;51.156;17.038;2023-03-01T09:44:07;28.25;;;18.45;;
52354;SDS011;38286;51.156;17.038;2023-03-01T09:47:02;24.42;;;17.98;;
52354;SDS011;38286;51.156;17.038;2023-03-01T09:49:29;27.58;;;17.42;;
52354;SDS011;38286;51.156;17.038;2023-03-01T09:52:00;28.38;;;18.08;;
52354;SDS011;38286;51.156;17.038;2023-03-01T09:54:47;29.83;;;19.10;;
52354;SDS011;38286;51.156;17.038;2023-03-01T09:57:17;27.90;;;18.77;;
52354;SDS011;38286;51.156;17.038;2023-03-01T10:08:30;28.47;;;18.57;;
52354;SDS011;38286;51.156;17.038;2023-03-01T10:11:05;27.73;;;17.63;;
52354;SDS011;38286;51.156;17.038;2023-03-01T10:13:48;31.73;;;18.02;;
52354;SDS011;38286;51.156;17.038;2023-03-01T10:19:23;25.60;;;17.63;;
52354;SDS011;38286;51.156;17.038;2023-03-01T10:21:52;26.20;;;17.23;;
52354;SDS011;38286;51.156;17.038;2023-03-01T10:24:18;26.17;;;17.17;;
52354;SDS011;38286;51.156;17.038;2023-03-01T10:26:56;23.95;;;16.73;;
52354;SDS011;38286;51.156;17.038;2023-03-01T10:29:30;23.55;;;16.63;;
52354;SDS011;38286;51.156;17.038;2023-03-01T10:31:59;26.88;;;16.80;;
52354;SDS011;38286;51.156;17.038;2023-03-01T10:34:29;21.63;;;15.68;;
52354;SDS011;38286;51.156;17.038;2023-03-01T10:36:56;24.35;;;17.33;;
52354;SDS011;38286;51.156;17.038;2023-03-01T10:39:24;23.23;;;16.92;;
52354;SDS011;38286;51.156;17.038;2023-03-01T10:47:22;26.20;;;17.20;;
52354;SDS011;38286;51.156;17.038;2023-03-01T10:49:59;26.77;;;17.70;;
52354;SDS011;38286;51.156;17.038;2023-03-01T10:52:34;26.85;;;18.15;;
52354;SDS011;38286;51.156;17.038;2023-03-01T10:55:02;25.83;;;17.63;;
52354;SDS011;38286;51.156;17.038;2023-03-01T10:57:31;23.17;;;16.70;;
52354;SDS011;38286;51.156;17.038;2023-03-01T11:00:17;24.98;;;17.10;;
52354;SDS011;38286;51.156;17.038;2023-03-01T11:02:48;23.42;;;16.23;;
52354;SDS011;38286;51.156;17.038;2023-03-01T11:05:22;22.20;;;14.63;;
52354;SDS011;38286;51.156;17.038;2023-03-01T11:07:53;24.15;;;16.27;;
52354;SDS011;38286;51.156;17.038;2023-03-01T11:10:26;22.40;;;14.65;;
52354;SDS011;38286;51.156;17.038;2023-03-01T11:13:06;20.30;;;13.75;;
52354;SDS011;38286;51.156;17.038;2023-03-01T11:15:32;21.02;;;14.63;;
52354;SDS011;38286;51.156;17.038;2023-03-01T11:17:58;20.23;;;13.98;;
52354;SDS011;38286;51.156;17.038;2023-03-01T11:23:05;23.20;;;15.20;;
52354;SDS011;38286;51.156;17.038;2023-03-01T11:25:35;22.65;;;14.68;;
52354;SDS011;38286;51.156;17.038;2023-03-01T11:28:03;21.85;;;14.98;;
52354;SDS011;38286;51.156;17.038;2023-03-01T11:33:43;25.77;;;14.75;;
52354;SDS011;38286;51.156;17.038;2023-03-01T11:36:31;23.80;;;14.40;;
52354;SDS011;38286;51.156;17.038;2023-03-01T11:42:12;26.45;;;15.50;;
52354;SDS011;38286;51.156;17.038;2023-03-01T11:44:47;27.23;;;15.55;;
52354;SDS011;38286;51.156;17.038;2023-03-01T11:47:40;21.67;;;12.80;;
52354;SDS011;38286;51.156;17.038;2023-03-01T11:50:30;25.60;;;14.15;;
52354;SDS011;38286;51.156;17.038;2023-03-01T11:56:08;23.38;;;13.10;;
52354;SDS011;38286;51.156;17.038;2023-03-01T11:58:39;25.52;;;13.20;;
52354;SDS011;38286;51.156;17.038;2023-03-01T12:09:27;23.65;;;12.90;;
52354;SDS011;38286;51.156;17.038;2023-03-01T12:14:48;20.98;;;10.93;;
52354;SDS011;38286;51.156;17.038;2023-03-01T12:23:20;19.67;;;10.35;;
52354;SDS011;38286;51.156;17.038;2023-03-01T12:26:13;16.85;;;8.77;;
52354;SDS011;38286;51.156;17.038;2023-03-01T12:29:17;19.50;;;8.82;;
52354;SDS011;38286;51.156;17.038;2023-03-01T12:37:25;15.32;;;8.57;;
52354;SDS011;38286;51.156;17.038;2023-03-01T12:45:40;17.08;;;8.82;;
52354;SDS011;38286;51.156;17.038;2023-03-01T12:48:18;20.95;;;9.85;;
52354;SDS011;38286;51.156;17.038;2023-03-01T12:50:48;19.85;;;9.13;;
52354;SDS011;38286;51.156;17.038;2023-03-01T12:53:27;13.20;;;8.02;;
52354;SDS011;38286;51.156;17.038;2023-03-01T12:55:56;18.08;;;9.75;;
52354;SDS011;38286;51.156;17.038;2023-03-01T13:06:54;18.75;;;10.13;;
52354;SDS011;38286;51.156;17.038;2023-03-01T13:09:39;20.77;;;10.13;;
52354;SDS011;38286;51.156;17.038;2023-03-01T13:17:48;20.52;;;10.43;;
52354;SDS011;38286;51.156;17.038;2023-03-01T13:20:18;19.73;;;10.20;;
52354;SDS011;38286;51.156;17.038;2023-03-01T13:22:46;17.23;;;10.18;;
52354;SDS011;38286;51.156;17.038;2023-03-01T13:25:16;19.15;;;10.68;;
52354;SDS011;38286;51.156;17.038;2023-03-01T13:27:44;18.55;;;10.52;;
52354;SDS011;38286;51.156;17.038;2023-03-01T13:35:56;19.88;;;10.48;;
52354;SDS011;38286;51.156;17.038;2023-03-01T13:41:13;19.67;;;9.93;;
52354;SDS011;38286;51.156;17.038;2023-03-01T13:43:41;19.42;;;10.15;;
52354;SDS011;38286;51.156;17.038;2023-03-01T13:46:20;17.75;;;9.50;;
52354;SDS011;38286;51.156;17.038;2023-03-01T13:48:50;18.13;;;10.18;;
52354;SDS011;38286;51.156;17.038;2023-03-01T13:51:20;20.40;;;10.57;;
52354;SDS011;38286;51.156;17.038;2023-03-01T13:53:49;23.92;;;11.05;;
52354;SDS011;38286;51.156;17.038;2023-03-01T13:56:16;23.33;;;11.30;;
52354;SDS011;38286;51.156;17.038;2023-03-01T13:58:46;19.95;;;11.05;;
52354;SDS011;38286;51.156;17.038;2023-03-01T14:01:33;23.25;;;11.00;;
52354;SDS011;38286;51.156;17.038;2023-03-01T14:04:00;21.83;;;10.98;;
52354;SDS011;38286;51.156;17.038;2023-03-01T14:06:28;21.67;;;10.63;;
52354;SDS011;38286;51.156;17.038;2023-03-01T14:09:08;26.52;;;11.40;;
52354;SDS011;38286;51.156;17.038;2023-03-01T14:14:28;15.75;;;9.45;;
52354;SDS011;38286;51.156;17.038;2023-03-01T14:17:00;21.30;;;10.50;;
52354;SDS011;38286;51.156;17.038;2023-03-01T14:19:29;23.75;;;10.32;;
52354;SDS011;38286;51.156;17.038;2023-03-01T14:21:58;19.50;;;9.90;;
52354;SDS011;38286;51.156;17.038;2023-03-01T14:24:38;19.02;;;10.65;;
52354;SDS011;38286;51.156;17.038;2023-03-01T14:27:09;19.13;;;10.15;;
52354;SDS011;38286;51.156;17.038;2023-03-01T14:29:37;20.13;;;10.35;;
52354;SDS011;38286;51.156;17.038;2023-03-01T14:34:36;20.02;;;10.25;;
52354;SDS011;38286;51.156;17.038;2023-03-01T14:37:16;18.40;;;8.98;;
52354;SDS011;38286;51.156;17.038;2023-03-01T14:39:44;20.63;;;10.70;;
52354;SDS011;38286;51.156;17.038;2023-03-01T14:42:11;20.60;;;10.85;;
52354;SDS011;38286;51.156;17.038;2023-03-01T14:44:37;22.10;;;10.15;;
52354;SDS011;38286;51.156;17.038;2023-03-01T14:47:03;16.67;;;10.20;;
52354;SDS011;38286;51.156;17.038;2023-03-01T14:49:29;22.33;;;10.50;;
52354;SDS011;38286;51.156;17.038;2023-03-01T14:52:03;21.15;;;10.85;;
52354;SDS011;38286;51.156;17.038;2023-03-01T14:54:39;23.50;;;11.80;;
52354;SDS011;38286;51.156;17.038;2023-03-01T14:57:13;21.15;;;11.60;;
52354;SDS011;38286;51.156;17.038;2023-03-01T14:59:41;17.95;;;10.40;;
52354;SDS011;38286;51.156;17.038;2023-03-01T15:02:08;21.80;;;10.68;;
52354;SDS011;38286;51.156;17.038;2023-03-01T15:04:43;23.15;;;11.02;;
52354;SDS011;38286;51.156;17.038;2023-03-01T15:07:11;21.25;;;11.23;;
52354;SDS011;38286;51.156;17.038;2023-03-01T15:09:39;20.45;;;10.70;;
52354;SDS011;38286;51.156;17.038;2023-03-01T15:14:52;35.72;;;17.05;;
52354;SDS011;38286;51.156;17.038;2023-03-01T15:19:58;19.00;;;10.70;;
52354;SDS011;38286;51.156;17.038;2023-03-01T15:22:24;22.83;;;11.40;;
52354;SDS011;38286;51.156;17.038;2023-03-01T15:24:51;19.60;;;11.05;;
52354;SDS011;38286;51.156;17.038;2023-03-01T15:27:18;21.65;;;10.38;;
52354;SDS011;38286;51.156;17.038;2023-03-01T15:29:51;21.25;;;11.30;;
52354;SDS011;38286;51.156;17.038;2023-03-01T15:32:26;20.40;;;10.25;;
52354;SDS011;38286;51.156;17.038;2023-03-01T15:35:00;19.20;;;10.82;;
52354;SDS011;38286;51.156;17.038;2023-03-01T15:37:38;21.38;;;11.13;;
52354;SDS011;38286;51.156;17.038;2023-03-01T15:42:50;23.92;;;11.88;;
52354;SDS011;38286;51.156;17.038;2023-03-01T15:47:49;22.13;;;11.55;;
52354;SDS011;38286;51.156;17.038;2023-03-01T15:52:47;29.08;;;13.50;;
52354;SDS011;38286;51.156;17.038;2023-03-01T15:55:20;25.13;;;11.45;;
52354;SDS011;38286;51.156;17.038;2023-03-01T16:00:14;26.35;;;12.30;;
52354;SDS011;38286;51.156;17.038;2023-03-01T16:02:41;25.80;;;12.65;;
52354;SDS011;38286;51.156;17.038;2023-03-01T16:05:22;22.60;;;12.50;;